Time;durP1;ratioP1;P1;durP2;ratioP2;P2;SDS_P1;SDS_P2;PMS_P1;PMS_P2;Temp;Humidity;BMP_temperature;BMP_pressure;BME280_temperature;BME280_humidity;BME280_pressure;Samples;Min_cycle;Max_cycle;Signal;HPM_P1;HPM_P2
2021/11/01 00:01:01;;;;;;;37.42;21.20;;;;;;;3.46;100.00;99481.27;1722552;82;21531;-64
2021/11/01 00:03:33;;;;;;;36.17;22.98;;;;;;;3.43;100.00;99471.64;1737638;80;21526;-63
2021/11/01 00:06:09;;;;;;;37.25;22.27;;;;;;;3.40;100.00;99476.77;1737427;81;21474;-63
2021/11/01 00:08:41;;;;;;;37.55;23.80;;;;;;;3.38;100.00;99475.84;1724974;82;21526;-64
2021/11/01 00:11:13;;;;;;;37.73;23.75;;;;;;;3.37;100.00;99474.50;1729680;82;21431;-63
2021/11/01 00:13:55;;;;;;;39.48;23.80;;;;;;;3.37;100.00;99472.78;1731963;82;21134;-64
2021/11/01 00:16:27;;;;;;;34.75;23.50;;;;;;;3.40;100.00;99473.28;1716579;82;21991;-64
2021/11/01 00:19:03;;;;;;;37.35;23.45;;;;;;;3.45;100.00;99469.95;1775867;80;21445;-64
2021/11/01 00:21:41;;;;;;;37.28;23.75;;;;;;;3.46;100.00;99466.51;1772581;80;20864;-64
2021/11/01 00:24:11;;;;;;;39.00;24.27;;;;;;;3.48;100.00;99469.16;1786906;78;20988;-64
2021/11/01 00:26:47;;;;;;;38.30;24.12;;;;;;;3.47;100.00;99459.14;1786882;79;21430;-64
2021/11/01 00:29:26;;;;;;;37.65;24.90;;;;;;;3.46;100.00;99457.80;1787760;80;22180;-65
2021/11/01 00:32:01;;;;;;;37.88;23.57;;;;;;;3.45;100.00;99457.34;1785086;80;21391;-63
2021/11/01 00:34:53;;;;;;;36.98;23.47;;;;;;;3.47;100.00;99455.66;1787693;78;20845;-64
2021/11/01 00:37:26;;;;;;;35.92;22.80;;;;;;;3.45;100.00;99458.22;1764785;78;20927;-63
2021/11/01 00:40:07;;;;;;;34.48;22.42;;;;;;;3.41;100.00;99455.07;1787588;78;21957;-63
2021/11/01 00:42:49;;;;;;;37.60;22.75;;;;;;;3.34;100.00;99446.62;1787402;78;21399;-64
2021/11/01 00:45:23;;;;;;;33.10;20.55;;;;;;;3.31;100.00;99440.02;1782257;78;21561;-63
2021/11/01 00:47:59;;;;;;;32.25;20.23;;;;;;;3.30;100.00;99433.00;1788067;79;20852;-64
2021/11/01 00:50:31;;;;;;;32.88;19.62;;;;;;;3.30;100.00;99429.52;1787150;78;21418;-64
2021/11/01 00:53:04;;;;;;;33.45;20.45;;;;;;;3.28;100.00;99435.11;1787380;80;21936;-64
2021/11/01 00:55:55;;;;;;;31.48;21.02;;;;;;;3.25;100.00;99421.57;1784411;79;21415;-64
2021/11/01 00:58:27;;;;;;;34.85;20.35;;;;;;;3.24;100.00;99421.53;1785890;78;21462;-64
2021/11/01 01:01:05;;;;;;;29.92;20.37;;;;;;;3.19;100.00;99424.43;1788317;79;21429;-65
2021/11/01 01:03:43;;;;;;;34.45;21.95;;;;;;;3.16;100.00;99422.20;1788192;80;21423;-64
2021/11/01 01:06:20;;;;;;;28.52;19.40;;;;;;;3.13;100.00;99410.81;1785464;78;21458;-64
2021/11/01 01:08:53;;;;;;;32.95;20.35;;;;;;;3.09;100.00;99414.17;1779299;79;20909;-63
2021/11/01 01:11:35;;;;;;;33.67;21.77;;;;;;;3.05;100.00;99411.91;1772956;79;20999;-64
2021/11/01 01:14:12;;;;;;;29.92;21.60;;;;;;;3.02;100.00;99414.42;1776292;79;21434;-63
2021/11/01 01:16:45;;;;;;;32.47;23.03;;;;;;;3.01;100.00;99410.47;1774778;79;21413;-60
2021/11/01 01:19:19;;;;;;;33.48;20.90;;;;;;;3.01;100.00;99413.08;1772202;79;21094;-63
2021/11/01 01:24:38;;;;;;;34.50;21.40;;;;;;;2.95;100.00;99422.91;1759963;79;21411;-63
2021/11/01 01:27:10;;;;;;;34.43;21.73;;;;;;;2.93;100.00;99410.26;1776876;79;21466;-63
2021/11/01 01:29:41;;;;;;;35.35;24.95;;;;;;;2.90;100.00;99404.96;1773997;79;21431;-63
2021/11/01 01:32:13;;;;;;;41.48;24.92;;;;;;;2.89;100.00;99399.29;1780447;79;21088;-63
2021/11/01 01:34:42;;;;;;;38.50;25.08;;;;;;;2.89;100.00;99406.22;1761864;79;21403;-63
2021/11/01 01:37:12;;;;;;;40.80;25.92;;;;;;;2.87;100.00;99398.78;1782273;79;20936;-63
2021/11/01 01:39:47;;;;;;;42.30;27.52;;;;;;;2.86;100.00;99399.20;1782723;80;20944;-63
2021/11/01 01:42:17;;;;;;;48.75;26.02;;;;;;;2.85;100.00;99394.83;1776544;79;21470;-63
2021/11/01 01:47:44;;;;;;;37.05;21.33;;;;;;;2.89;100.00;99396.69;1771034;79;21419;-63
2021/11/01 01:50:20;;;;;;;36.88;22.42;;;;;;;2.91;100.00;99400.63;1782093;80;20944;-63
2021/11/01 01:55:47;;;;;;;34.48;22.50;;;;;;;2.85;100.00;99388.31;1761961;79;21722;-64
2021/11/01 01:58:33;;;;;;;33.13;21.97;;;;;;;2.83;100.00;99386.05;1774675;80;21257;-63
2021/11/01 02:01:14;;;;;;;35.35;23.02;;;;;;;2.82;100.00;99385.59;1759386;80;20825;-63
2021/11/01 02:03:51;;;;;;;35.65;22.05;;;;;;;2.83;100.00;99396.48;1774218;79;20892;-63
2021/11/01 02:07:16;;;;;;;35.88;22.52;;;;;;;2.84;100.00;99390.46;1774698;79;21400;-63
2021/11/01 02:10:07;;;;;;;34.73;23.05;;;;;;;2.87;100.00;99400.97;1789217;78;21422;-63
2021/11/01 02:12:53;;;;;;;35.98;21.95;;;;;;;2.89;100.00;99395.38;1790086;80;21372;-63
2021/11/01 02:15:54;;;;;;;39.80;23.30;;;;;;;2.88;100.00;99393.62;1760950;78;20875;-63
2021/11/01 02:18:29;;;;;;;38.35;24.65;;;;;;;2.86;100.00;99387.48;1784019;80;20962;-63
2021/11/01 02:21:15;;;;;;;33.88;23.35;;;;;;;2.82;100.00;99389.50;1782394;80;21478;-63
2021/11/01 02:24:06;;;;;;;32.98;22.55;;;;;;;2.78;100.00;99383.74;1772095;80;20944;-63
2021/11/01 02:26:38;;;;;;;34.67;21.90;;;;;;;2.76;100.00;99391.52;1762029;80;21813;-63
2021/11/01 02:29:10;;;;;;;34.60;21.85;;;;;;;2.76;100.00;99387.61;1790006;80;21495;-63
2021/11/01 02:31:45;;;;;;;31.50;22.20;;;;;;;2.78;100.00;99387.23;1786150;80;21416;-63
2021/11/01 02:34:25;;;;;;;35.63;22.62;;;;;;;2.78;100.00;99395.46;1786104;78;21473;-63
2021/11/01 02:36:56;;;;;;;36.45;23.25;;;;;;;2.77;100.00;99401.52;1780930;80;21553;-63
2021/11/01 02:39:57;;;;;;;37.83;23.15;;;;;;;2.74;100.00;99389.70;1789998;78;21103;-63
2021/11/01 02:42:34;;;;;;;36.83;22.50;;;;;;;2.74;100.00;99383.19;1785165;79;21387;-63
2021/11/01 02:45:13;;;;;;;33.67;21.97;;;;;;;2.73;100.00;99394.03;1782494;79;20976;-63
2021/11/01 02:47:47;;;;;;;30.40;21.35;;;;;;;2.72;100.00;99379.66;1781710;79;21428;-63
2021/11/01 02:50:21;;;;;;;35.15;22.50;;;;;;;2.71;100.00;99387.02;1782967;79;20927;-64
2021/11/01 02:52:56;;;;;;;35.00;22.52;;;;;;;2.72;100.00;99383.57;1787973;80;21370;-63
2021/11/01 02:55:40;;;;;;;37.55;21.97;;;;;;;2.72;100.00;99383.15;1783167;79;20971;-64
2021/11/01 02:58:24;;;;;;;32.73;21.93;;;;;;;2.71;100.00;99380.08;1784844;80;21426;-65
2021/11/01 03:00:51;;;;;;;35.43;21.68;;;;;;;2.72;100.00;99371.84;1789624;78;21482;-63
2021/11/01 03:03:24;;;;;;;36.73;21.00;;;;;;;2.73;100.00;99377.52;1788899;78;21489;-64
2021/11/01 03:06:06;;;;;;;32.40;20.60;;;;;;;2.71;100.00;99376.17;1782274;78;21414;-63
2021/11/01 03:08:40;;;;;;;31.10;20.62;;;;;;;2.70;100.00;99367.02;1779621;79;21514;-63
2021/11/01 03:11:12;;;;;;;30.68;20.15;;;;;;;2.69;100.00;99367.44;1771065;79;21443;-64
2021/11/01 03:13:49;;;;;;;28.25;20.08;;;;;;;2.70;100.00;99373.53;1776041;80;20952;-65
2021/11/01 03:16:18;;;;;;;30.62;20.17;;;;;;;2.71;100.00;99364.88;1774896;79;21447;-63
2021/11/01 03:18:54;;;;;;;32.83;20.20;;;;;;;2.71;100.00;99358.36;1776753;79;21072;-64
2021/11/01 03:21:25;;;;;;;29.80;19.92;;;;;;;2.69;100.00;99350.50;1733907;80;21462;-64
2021/11/01 03:23:57;;;;;;;30.27;20.23;;;;;;;2.69;100.00;99353.11;1776266;79;20892;-64
2021/11/01 03:26:39;;;;;;;33.23;20.30;;;;;;;2.64;100.00;99342.09;1777900;79;21447;-64
2021/11/01 03:29:13;;;;;;;32.38;21.23;;;;;;;2.60;100.00;99345.03;1773120;80;21431;-63
2021/11/01 03:31:42;;;;;;;34.80;20.97;;;;;;;2.59;100.00;99351.08;1776054;79;21860;-65
2021/11/01 03:34:10;;;;;;;32.42;21.62;;;;;;;2.57;100.00;99354.48;1776263;79;20860;-62
2021/11/01 03:36:43;;;;;;;32.40;20.50;;;;;;;2.56;100.00;99339.70;1772114;79;21470;-64
2021/11/01 03:39:14;;;;;;;33.80;21.48;;;;;;;2.56;100.00;99348.39;1780060;79;20934;-64
2021/11/01 03:41:51;;;;;;;30.23;20.62;;;;;;;2.59;100.00;99346.30;1748488;79;21434;-64
2021/11/01 03:44:29;;;;;;;34.10;22.52;;;;;;;2.62;100.00;99338.57;1781343;80;21895;-64
2021/11/01 03:46:59;;;;;;;32.60;21.73;;;;;;;2.65;100.00;99328.23;1780355;79;20927;-64
2021/11/01 03:49:36;;;;;;;34.58;21.00;;;;;;;2.67;100.00;99327.86;1782496;79;20939;-64
2021/11/01 03:54:40;;;;;;;33.85;21.75;;;;;;;2.66;100.00;99324.80;1776310;79;21439;-64
2021/11/01 03:57:16;;;;;;;32.60;21.07;;;;;;;2.66;100.00;99322.19;1769761;79;21470;-64
2021/11/01 03:59:44;;;;;;;30.48;20.92;;;;;;;2.65;100.00;99318.70;1780402;80;21394;-64
2021/11/01 04:02:16;;;;;;;29.98;19.92;;;;;;;2.66;100.00;99320.89;1782906;80;20889;-64
2021/11/01 04:04:54;;;;;;;29.12;19.77;;;;;;;2.67;100.00;99309.20;1782208;79;21383;-64
2021/11/01 04:07:25;;;;;;;32.05;20.65;;;;;;;2.68;100.00;99307.06;1783204;79;20883;-64
2021/11/01 04:10:02;;;;;;;;;;;;;;;2.67;100.00;99322.66;1790871;78;21367;-64
2021/11/01 04:12:35;;;;;;;28.85;20.35;;;;;;;2.64;100.00;99311.73;1788173;78;20441;-63
2021/11/01 04:15:17;;;;;;;30.17;20.48;;;;;;;2.64;100.00;99313.45;1788417;78;21362;-61
2021/11/01 04:22:49;;;;;;;37.88;20.17;;;;;;;2.65;100.00;99298.28;1788276;80;21119;-63
2021/11/01 04:25:21;;;;;;;38.73;21.35;;;;;;;2.70;100.00;99302.78;1788193;78;20893;-64
2021/11/01 04:27:53;;;;;;;30.40;20.27;;;;;;;2.74;100.00;99306.34;1786642;78;20927;-65
2021/11/01 04:30:25;;;;;;;30.17;20.60;;;;;;;2.79;100.00;99308.23;1789355;78;21453;-68
2021/11/01 04:32:57;;;;;;;29.02;20.57;;;;;;;2.83;100.00;99311.39;1790927;78;20939;-65
2021/11/01 04:35:29;;;;;;;29.80;21.20;;;;;;;2.86;100.00;99307.13;1788151;78;21431;-66
2021/11/01 04:38:07;;;;;;;30.48;20.45;;;;;;;2.88;100.00;99313.27;1788238;78;20844;-65
2021/11/01 04:43:54;;;;;;;30.37;20.72;;;;;;;2.93;100.00;99319.06;1676901;80;21462;-65
2021/11/01 04:54:25;;;;;;;40.48;25.57;;;;;;;3.10;100.00;99309.96;1784083;78;20983;-68
2021/11/01 04:56:53;;;;;;;44.75;24.85;;;;;;;3.10;100.00;99312.57;1782563;78;21006;-67
2021/11/01 04:59:22;;;;;;;37.58;24.37;;;;;;;3.09;100.00;99307.31;1787252;78;20974;-67
2021/11/01 05:01:52;;;;;;;37.58;23.45;;;;;;;3.07;100.00;99307.70;1783432;79;21109;-66
2021/11/01 05:04:29;;;;;;;37.70;23.57;;;;;;;3.06;100.00;99312.45;1772695;80;21415;-67
2021/11/01 05:07:01;;;;;;;35.40;23.07;;;;;;;3.02;100.00;99314.09;1757402;80;21458;-66
2021/11/01 05:10:12;;;;;;;36.60;22.77;;;;;;;2.99;100.00;99315.31;1758985;80;20840;-65
2021/11/01 05:14:39;;;;;;;33.80;23.10;;;;;;;2.88;100.00;99307.64;1760036;81;21130;-65
2021/11/01 05:17:17;;;;;;;31.42;23.10;;;;;;;2.76;100.00;99316.39;1759478;80;28030;-64
2021/11/01 05:19:35;;;;;;;35.55;22.75;;;;;;;2.65;100.00;99307.41;1757164;81;20887;-64
2021/11/01 05:22:13;;;;;;;32.67;21.82;;;;;;;2.59;100.00;99316.34;1759733;81;20940;-64
2021/11/01 05:24:40;;;;;;;31.55;21.35;;;;;;;2.56;100.00;99309.33;1758917;80;21448;-64
2021/11/01 05:27:38;;;;;;;33.42;21.97;;;;;;;2.53;100.00;99314.03;1759734;80;21918;-63
2021/11/01 05:29:41;;;;;;;30.85;21.60;;;;;;;2.59;100.00;99313.74;1758017;81;20990;-63
2021/11/01 05:32:14;;;;;;;29.75;21.33;;;;;;;2.60;100.00;99312.48;1759581;80;20907;-64
2021/11/01 05:34:37;;;;;;;36.40;22.62;;;;;;;2.58;100.00;99311.56;1759260;80;21312;-64
2021/11/01 05:37:06;;;;;;;33.83;22.95;;;;;;;2.57;100.00;99318.91;1740352;81;20952;-64
2021/11/01 05:39:35;;;;;;;37.55;22.25;;;;;;;2.55;100.00;99315.80;1760080;80;21075;-64
2021/11/01 05:42:05;;;;;;;35.23;22.95;;;;;;;2.46;100.00;99317.72;1759680;81;21467;-64
2021/11/01 05:44:33;;;;;;;31.75;22.55;;;;;;;2.44;100.00;99315.08;1759701;80;20916;-65
2021/11/01 05:47:03;;;;;;;31.30;22.37;;;;;;;2.50;100.00;99322.18;1759992;80;20946;-65
2021/11/01 05:49:31;;;;;;;36.98;23.60;;;;;;;2.58;100.00;99318.06;1759778;81;20884;-65
2021/11/01 05:52:04;;;;;;;31.82;21.60;;;;;;;2.67;100.00;99319.62;1759820;80;21442;-63
2021/11/01 05:54:33;;;;;;;34.30;22.45;;;;;;;2.77;100.00;99314.25;1759956;80;20891;-63
2021/11/01 05:57:23;;;;;;;31.95;22.52;;;;;;;2.92;100.00;99323.81;1760095;80;21422;-64
2021/11/01 06:00:16;;;;;;;30.57;22.75;;;;;;;3.04;100.00;99321.53;1762330;80;21442;-64
2021/11/01 06:05:05;;;;;;;35.90;23.12;;;;;;;3.21;100.00;99327.59;1760124;81;21115;-64
2021/11/01 06:07:34;;;;;;;31.27;21.93;;;;;;;3.30;100.00;99335.66;1759104;81;21481;-64
2021/11/01 06:10:24;;;;;;;39.20;22.95;;;;;;;3.41;100.00;99338.14;1757099;80;20868;-64
2021/11/01 06:15:30;;;;;;;33.53;23.05;;;;;;;3.58;100.00;99332.92;1757667;80;20848;-65
2021/11/01 06:17:58;;;;;;;32.80;22.80;;;;;;;3.64;100.00;99330.88;1757665;80;21066;-65
2021/11/01 06:20:26;;;;;;;33.63;23.42;;;;;;;3.69;100.00;99334.06;1757284;80;20959;-64
2021/11/01 06:22:54;;;;;;;32.93;23.38;;;;;;;3.79;100.00;99333.89;1757595;80;20935;-64
2021/11/01 06:25:24;;;;;;;32.95;24.00;;;;;;;3.91;100.00;99342.00;1757306;81;21134;-65
2021/11/01 06:27:55;;;;;;;34.03;23.52;;;;;;;3.96;100.00;99333.86;1758690;80;21490;-64
2021/11/01 06:30:40;;;;;;;46.53;24.20;;;;;;;4.01;100.00;99335.27;1756951;80;21028;-69
2021/11/01 06:33:39;;;;;;;33.63;22.65;;;;;;;4.04;100.00;99333.61;1786288;80;20966;-66
2021/11/01 07:14:15;;;;;;;34.00;22.95;;;;;;;4.86;100.00;99321.45;1790025;78;20929;-65
2021/11/01 07:30:17;;;;;;;31.95;23.25;;;;;;;5.61;100.00;99298.83;1790071;78;21361;-65
2021/11/01 08:17:41;;;;;;;36.28;23.15;;;;;;;7.83;100.00;99259.10;1712976;83;20966;-68
2021/11/01 08:22:58;;;;;;;31.30;23.92;;;;;;;8.14;100.00;99241.80;1712759;83;21184;-68
2021/11/01 08:25:41;;;;;;;34.35;23.65;;;;;;;8.27;100.00;99248.87;1714056;83;21025;-68
2021/11/01 08:39:10;;;;;;;32.23;22.40;;;;;;;8.92;100.00;99228.97;1721624;82;20908;-66
2021/11/01 08:41:43;;;;;;;28.73;22.17;;;;;;;9.06;100.00;99227.27;1722407;83;21002;-67
2021/11/01 09:01:18;;;;;;;74.17;24.00;;;;;;;9.59;100.00;99218.08;1712419;83;20952;-67
2021/11/01 09:08:30;;;;;;;26.45;20.17;;;;;;;10.00;100.00;99194.75;1695002;84;21010;-70
2021/11/01 09:18:48;;;;;;;30.90;21.20;;;;;;;10.72;100.00;99177.76;1741776;80;20953;-68
2021/11/01 09:21:36;;;;;;;29.35;21.52;;;;;;;10.89;100.00;99174.16;1751376;80;21393;-67
2021/11/01 09:24:32;;;;;;;28.70;19.90;;;;;;;11.01;100.00;99183.31;1751544;80;20918;-69
2021/11/01 09:26:48;;;;;;;28.75;21.90;;;;;;;11.13;100.00;99175.73;1749934;80;21444;-67
2021/11/01 09:29:30;;;;;;;30.40;20.72;;;;;;;11.22;100.00;99173.02;1752638;80;21231;-66
2021/11/01 09:37:41;;;;;;;32.48;20.30;;;;;;;11.61;100.00;99161.23;1752735;80;20909;-68
2021/11/01 09:42:26;;;;;;;26.20;20.20;;;;;;;11.80;100.00;99155.34;1741855;80;21146;-66
2021/11/01 09:44:55;;;;;;;29.42;21.20;;;;;;;11.87;100.00;99148.69;1751882;80;20929;-65
2021/11/01 09:47:23;;;;;;;28.65;21.68;;;;;;;11.94;100.00;99154.33;1751770;80;21487;-67
2021/11/01 09:49:51;;;;;;;26.50;19.85;;;;;;;12.03;100.00;99158.63;1752003;80;21490;-67
2021/11/01 09:52:19;;;;;;;34.00;20.95;;;;;;;12.05;100.00;99146.27;1751591;80;20946;-67
2021/11/01 09:54:53;;;;;;;26.93;20.60;;;;;;;12.03;100.00;99146.73;1748289;80;22045;-63
2021/11/01 09:57:24;;;;;;;27.40;21.30;;;;;;;12.00;100.00;99144.12;1750395;80;20946;-59
2021/11/01 09:59:51;;;;;;;63.30;22.25;;;;;;;12.00;100.00;99141.48;1748575;80;28231;-68
2021/11/01 10:02:19;;;;;;;25.82;20.60;;;;;;;12.01;100.00;99140.59;1739745;80;21470;-70
2021/11/01 10:04:49;;;;;;;69.17;23.90;;;;;;;12.05;100.00;99137.02;1771165;80;21041;-66
2021/11/01 10:07:30;;;;;;;30.40;21.45;;;;;;;12.12;100.00;99135.17;1771070;80;21129;-65
2021/11/01 10:10:11;;;;;;;29.80;21.23;;;;;;;12.13;100.00;99133.83;1770996;80;21046;-66
2021/11/01 10:12:44;;;;;;;28.87;21.87;;;;;;;12.16;100.00;99127.17;1775737;80;21541;-70
2021/11/01 10:18:07;;;;;;;29.50;22.20;;;;;;;12.23;100.00;99120.03;1775765;80;21029;-69
2021/11/01 10:20:43;;;;;;;30.97;21.42;;;;;;;12.31;100.00;99116.87;1773440;80;21297;-70
2021/11/01 10:23:25;;;;;;;30.45;22.58;;;;;;;12.37;100.00;99121.20;1770657;80;21058;-69
2021/11/01 10:25:55;;;;;;;35.90;23.55;;;;;;;12.36;100.00;99121.65;1767093;80;20884;-70
2021/11/01 10:28:31;;;;;;;47.20;23.40;;;;;;;12.33;100.00;99121.70;1773582;80;20987;-72
2021/11/01 10:31:12;;;;;;;34.63;24.60;;;;;;;12.22;100.00;99110.35;1779925;80;21046;-74
2021/11/01 10:33:45;;;;;;;37.28;24.90;;;;;;;12.21;100.00;99115.22;1770723;80;21997;-68
2021/11/01 10:36:31;;;;;;;36.90;26.02;;;;;;;12.15;100.00;99115.30;1769960;80;20942;-69
2021/11/01 10:39:09;;;;;;;34.88;25.50;;;;;;;12.12;100.00;99112.69;1775421;80;21639;-73
2021/11/01 10:42:19;;;;;;;33.33;24.30;;;;;;;12.07;100.00;99111.43;1775221;80;21032;-69
2021/11/01 11:14:59;;;;;;;27.00;20.77;;;;;;;11.53;100.00;99077.23;1742921;81;21090;-71
2021/11/01 11:17:34;;;;;;;31.68;21.75;;;;;;;11.56;100.00;99078.06;1704428;83;21047;-69
2021/11/01 11:20:27;;;;;;;29.02;21.73;;;;;;;11.56;100.00;99083.80;1751220;82;20843;-69
2021/11/01 11:25:56;;;;;;;34.58;21.05;;;;;;;11.53;100.00;99070.63;1752563;82;20966;-70
2021/11/01 11:28:48;;;;;;;29.07;20.60;;;;;;;11.55;100.00;99069.72;1748407;82;21145;-68
2021/11/01 11:48:18;;;;;;;23.25;18.57;;;;;;;11.97;100.00;99054.28;1776821;80;20912;-70
2021/11/01 11:50:25;;;;;;;24.32;19.17;;;;;;;12.11;100.00;99059.38;1771762;80;20897;-70
2021/11/01 11:52:54;;;;;;;26.23;18.92;;;;;;;12.15;100.00;99052.71;1711966;82;21561;-71
2021/11/01 11:55:26;;;;;;;27.62;18.95;;;;;;;12.19;100.00;99053.54;1778376;80;21081;-69
2021/11/01 11:58:01;;;;;;;32.85;18.60;;;;;;;12.15;100.00;99047.42;1772459;80;20987;-69
2021/11/01 12:00:34;;;;;;;29.82;18.77;;;;;;;12.19;100.00;99042.52;1754542;80;20907;-69
2021/11/01 12:03:14;;;;;;;27.48;19.55;;;;;;;12.25;100.00;99034.49;1773771;80;20943;-69
2021/11/01 12:06:00;;;;;;;28.57;19.98;;;;;;;12.37;100.00;99040.53;1783477;80;21458;-69
2021/11/01 12:08:44;;;;;;;61.73;21.73;;;;;;;12.44;100.00;99034.24;1780333;80;21170;-69
2021/11/01 12:14:12;;;;;;;24.50;18.87;;;;;;;12.41;100.00;99035.61;1777460;80;20853;-69
2021/11/01 12:19:06;;;;;;;22.30;17.48;;;;;;;12.44;100.00;99032.92;1777465;80;21003;-70
2021/11/01 12:21:33;;;;;;;26.90;18.77;;;;;;;12.48;100.00;99030.20;1778196;80;21949;-69
2021/11/01 12:24:01;;;;;;;60.92;22.48;;;;;;;12.35;100.00;99034.39;1773073;80;20935;-69
2021/11/01 12:26:29;;;;;;;26.35;18.52;;;;;;;12.16;100.00;99032.43;1769998;80;21050;-69
2021/11/01 12:28:59;;;;;;;25.08;18.77;;;;;;;11.93;100.00;99036.72;1771250;80;21082;-72
2021/11/01 12:31:29;;;;;;;24.47;17.90;;;;;;;11.84;100.00;99040.36;1764164;80;21863;-72
2021/11/01 12:34:11;;;;;;;30.20;19.07;;;;;;;11.81;100.00;99041.69;1768760;80;21155;-70
2021/11/01 12:36:47;;;;;;;23.57;17.42;;;;;;;11.69;100.00;99041.81;1767844;80;20849;-70
2021/11/01 12:39:40;;;;;;;23.15;17.60;;;;;;;11.57;100.00;99033.59;1703871;83;21107;-72
2021/11/01 12:57:14;;;;;;;28.70;17.17;;;;;;;11.09;100.00;99034.98;1772634;80;21043;-71
2021/11/01 12:59:03;;;;;;;22.48;16.20;;;;;;;11.01;100.00;99036.81;1741761;80;21070;-70
2021/11/01 13:01:32;;;;;;;23.12;16.80;;;;;;;10.95;100.00;99038.20;1775342;80;21777;-70
2021/11/01 13:04:21;;;;;;;24.87;17.40;;;;;;;10.93;100.00;99037.34;1783351;80;21100;-70
2021/11/01 13:06:56;;;;;;;25.52;17.70;;;;;;;10.83;100.00;99034.32;1781263;80;20943;-70
2021/11/01 13:09:25;;;;;;;29.02;18.27;;;;;;;10.72;100.00;99038.38;1781456;80;20935;-70
2021/11/01 13:12:15;;;;;;;31.20;19.27;;;;;;;10.66;100.00;99041.94;1783895;80;20936;-70
2021/11/01 13:18:18;;;;;;;27.45;18.25;;;;;;;10.55;100.00;99038.52;1783432;80;21395;-70
2021/11/01 13:20:10;;;;;;;56.58;19.57;;;;;;;10.53;100.00;99036.78;1766812;80;21023;-70
2021/11/01 13:22:50;;;;;;;30.35;19.35;;;;;;;10.41;100.00;99037.75;1783757;80;20975;-69
2021/11/01 13:38:46;;;;;;;27.13;19.00;;;;;;;10.16;100.00;99032.14;1736192;82;20856;-69
2021/11/01 13:41:18;;;;;;;33.05;19.95;;;;;;;10.10;100.00;99023.39;1769551;80;21102;-70
2021/11/01 13:43:46;;;;;;;28.95;20.68;;;;;;;10.04;100.00;99023.88;1770844;80;21044;-70
2021/11/01 13:46:15;;;;;;;35.33;22.25;;;;;;;9.92;100.00;99028.73;1777608;80;21432;-68
2021/11/01 13:48:43;;;;;;;30.12;21.25;;;;;;;9.77;100.00;99030.14;1783815;80;20929;-68
2021/11/01 13:51:13;;;;;;;31.17;20.60;;;;;;;9.65;100.00;99027.56;1783744;80;21440;-68
2021/11/01 13:54:16;;;;;;;39.38;21.97;;;;;;;9.59;100.00;99024.95;1783953;80;21416;-69
2021/11/01 13:56:43;;;;;;;28.62;19.73;;;;;;;9.56;100.00;99027.61;1782748;80;20928;-67
2021/11/01 14:18:08;;;;;;;36.15;18.92;;;;;;;9.29;100.00;99018.89;1752566;80;21694;-70
2021/11/01 14:20:38;;;;;;;29.72;17.35;;;;;;;9.23;100.00;99025.94;1749936;80;21135;-69
2021/11/01 14:28:50;;;;;;;30.77;18.40;;;;;;;9.10;100.00;99021.14;1752482;80;20932;-70
2021/11/01 15:07:03;;;;;;;33.15;20.40;;;;;;;8.48;100.00;98990.48;1769332;80;20930;-70
2021/11/01 15:22:35;;;;;;;29.87;19.48;;;;;;;8.49;100.00;99002.75;1770346;80;21464;-70
2021/11/01 15:28:01;;;;;;;27.17;18.55;;;;;;;8.43;100.00;99001.00;1766188;80;21141;-68
2021/11/01 15:38:44;;;;;;;32.20;18.48;;;;;;;8.28;100.00;99010.16;1767232;80;20930;-70
2021/11/01 16:19:55;;;;;;;43.13;26.48;;;;;;;7.82;100.00;99023.63;1770183;80;21099;-68
2021/11/01 16:22:23;;;;;;;47.90;27.35;;;;;;;7.82;100.00;99024.94;1752500;82;21767;-68
2021/11/01 16:24:52;;;;;;;48.50;28.62;;;;;;;7.84;100.00;99021.45;1758215;80;21462;-68
2021/11/01 16:27:24;;;;;;;52.60;29.55;;;;;;;7.82;100.00;99021.00;1783751;80;21631;-68
2021/11/01 16:30:07;;;;;;;49.70;28.27;;;;;;;7.80;100.00;99022.75;1783824;80;21409;-68
2021/11/01 16:32:38;;;;;;;52.67;31.10;;;;;;;7.79;100.00;99023.63;1783699;80;20964;-68
2021/11/01 16:35:06;;;;;;;58.20;33.80;;;;;;;7.77;100.00;99019.68;1783298;80;21156;-67
2021/11/01 16:40:08;;;;;;;60.17;33.35;;;;;;;7.67;100.00;99027.09;1783929;80;20860;-67
2021/11/01 16:42:38;;;;;;;63.10;34.10;;;;;;;7.62;100.00;99026.20;1783532;80;20952;-68
2021/11/01 16:45:15;;;;;;;72.85;35.03;;;;;;;7.61;100.00;99028.38;1783555;80;21004;-67
2021/11/01 16:47:43;;;;;;;62.38;34.70;;;;;;;7.61;100.00;99034.06;1783501;80;21400;-66
2021/11/01 16:50:13;;;;;;;67.70;35.88;;;;;;;7.57;100.00;99032.74;1753785;80;20832;-67
2021/11/01 16:52:41;;;;;;;79.67;35.40;;;;;;;7.58;100.00;99036.24;1783088;80;20980;-64
2021/11/01 16:55:21;;;;;;;63.38;35.68;;;;;;;7.62;100.00;99029.25;1783598;80;20929;-63
2021/11/01 16:58:03;;;;;;;63.40;35.05;;;;;;;7.64;100.00;99029.70;1782516;80;20996;-65
2021/11/01 17:06:03;;;;;;;62.10;35.52;;;;;;;7.68;100.00;99030.59;1761488;80;21547;-67
2021/11/01 17:21:15;;;;;;;61.02;33.35;;;;;;;7.67;100.00;99034.08;1769041;80;20996;-67
2021/11/01 17:27:28;;;;;;;59.00;32.48;;;;;;;7.49;100.00;99024.36;1783449;80;21049;-67
2021/11/01 18:40:08;;;;;;;;;;;;;;;;;;;;;
2021/11/01 18:45:45;;;;;;;56.60;33.28;;;;;;;7.41;100.00;98983.66;1766124;80;20985;-65
2021/11/01 18:50:58;;;;;;;56.23;32.33;;;;;;;7.39;100.00;98987.14;1764492;80;22033;-65
2021/11/01 18:53:25;;;;;;;60.20;32.25;;;;;;;7.39;100.00;98989.33;1767351;80;20881;-67
2021/11/01 18:55:55;;;;;;;57.90;32.87;;;;;;;7.39;100.00;98989.33;1743432;80;20982;-65
2021/11/01 18:58:24;;;;;;;52.13;30.72;;;;;;;7.38;100.00;98982.33;1760506;80;20991;-69
2021/11/01 19:00:53;;;;;;;46.37;28.73;;;;;;;7.36;100.00;98983.20;1766890;80;21600;-66
2021/11/01 19:03:24;;;;;;;49.33;28.70;;;;;;;7.32;100.00;98990.18;1766740;80;21161;-63
2021/11/01 19:11:59;;;;;;;53.42;30.65;;;;;;;7.32;100.00;98981.43;1765146;80;20893;-65
2021/11/01 20:04:19;;;;;;;51.10;29.55;;;;;;;7.14;100.00;98941.14;1763457;80;21039;-65
2021/11/01 20:07:10;;;;;;;51.42;31.82;;;;;;;7.12;100.00;98947.25;1752203;80;21559;-64
2021/11/01 20:10:00;;;;;;;56.28;30.80;;;;;;;7.10;100.00;98941.12;1752723;80;21072;-66
2021/11/01 20:14:38;;;;;;;54.45;29.57;;;;;;;7.13;100.00;98938.51;1730465;82;21021;-66
2021/11/01 21:27:03;;;;;;;46.30;27.48;;;;;;;7.35;100.00;98883.92;1761829;80;20974;-66
2021/11/01 21:29:36;;;;;;;51.00;28.65;;;;;;;7.42;100.00;98875.63;1772625;80;21447;-66
2021/11/01 21:32:06;;;;;;;50.10;28.02;;;;;;;7.48;100.00;98879.58;1745383;82;20890;-66
2021/11/01 21:34:37;;;;;;;49.50;27.13;;;;;;;7.49;100.00;98880.89;1746012;80;21428;-67
2021/11/01 21:37:07;;;;;;;49.88;28.47;;;;;;;7.49;100.00;98880.02;1763260;80;21456;-67
2021/11/01 21:39:37;;;;;;;43.95;25.62;;;;;;;7.44;100.00;98882.63;1770068;80;21557;-66
2021/11/01 21:42:08;;;;;;;47.58;27.20;;;;;;;7.34;100.00;98874.73;1766648;79;20991;-67
2021/11/01 21:44:37;;;;;;;48.00;28.38;;;;;;;7.25;100.00;98877.77;1764632;79;20864;-66
2021/11/01 21:47:07;;;;;;;42.27;25.52;;;;;;;7.18;100.00;98875.13;1762911;79;21095;-66
2021/11/01 21:49:35;;;;;;;45.08;25.35;;;;;;;7.15;100.00;98873.37;1765392;80;20908;-66
2021/11/01 21:52:04;;;;;;;50.75;28.57;;;;;;;7.19;100.00;98869.89;1753474;80;21439;-67
2021/11/01 21:54:39;;;;;;;46.98;27.60;;;;;;;7.23;100.00;98872.09;1775409;80;20937;-66
2021/11/01 21:57:09;;;;;;;45.33;27.42;;;;;;;7.24;100.00;98872.09;1725112;81;21415;-66
2021/11/01 22:22:07;;;;;;;55.20;27.87;;;;;;;7.28;100.00;98850.67;1767756;80;21474;-64
2021/11/01 22:24:33;;;;;;;49.08;28.00;;;;;;;7.30;100.00;98851.98;1759195;80;20999;-65
2021/11/01 22:32:07;;;;;;;50.83;26.50;;;;;;;7.21;100.00;98847.59;1758798;80;21396;-65
2021/11/01 22:45:29;;;;;;;52.38;27.40;;;;;;;7.17;100.00;98832.28;1774671;80;20927;-65
2021/11/01 22:48:14;;;;;;;47.10;26.25;;;;;;;7.14;100.00;98828.34;1761599;79;21435;-65
2021/11/01 22:56:20;;;;;;;45.65;25.55;;;;;;;7.07;100.00;98821.30;1747765;80;20967;-66